Latest Coastal Weather Observations for Darwin Harbour

IDD60701

Issued at 5:25 am CST Friday 1 August 2014 (issued every 10 minutes, with the page automatically refreshed every 10 minutes)

About coastal observations | Map of coastal stations | Coastal observations for NT | Marine services | Other Formats
Station Details ID: 014072 Name: DARWIN NTC AWS Lat: -12.47 Lon: 130.85 Height: 0.0 m
Data from the previous 72 hours. | See also: Recent months for locations in Northern Territory
Date/Time
CST
Temp

°C
Wind Pressure Rain
since 9am
mm
Weather Cloud Vis
km
Sea
Height
m
Swell
Dir
 
Speed
knots
Gust
knots
hPa Trend Height
m
Period
s
Dir
01/05:00am - ENE 4 5 1013.2 - - - - - - - - -
01/04:30am - ENE 3 5 1012.9 - - - - - - - - -
01/04:00am 23.9 ENE 3 5 1013.1 - - - - - - - - -
01/03:30am - ENE 3 4 1012.9 - - - - - - - - -
01/03:00am - E 2 3 1012.9 - - - - - - - - -
01/02:30am 24.3 ENE 2 3 1013.1 - - - - - - - - -
01/02:00am - ENE 3 5 1013.2 - - - - - - - - -
01/01:30am - ENE 1 3 1013.3 - - - - - - - - -
01/01:00am - E 1 3 1013.3 - - - - - - - - -
01/12:30am - W 1 1 1013.4 - - - - - - - - -
01/12:00am - W 1 2 1013.2 - - - - - - - - -
 
Date/Time
CST
Temp

°C
Wind Pressure Rain
since 9am
mm
Weather Cloud Vis
km
Sea
Height
m
Swell
Dir
 
Speed
knots
Gust
knots
hPa Trend Height
m
Period
s
Dir
31/11:30pm - WSW 2 3 1013.3 - - - - - - - - -
31/11:00pm - W 3 4 1013.2 - - - - - - - - -
31/10:30pm - W 3 4 1012.9 - - - - - - - - -
31/10:00pm - WSW 4 5 1012.8 - - - - - - - - -
31/09:30pm - WSW 3 5 1012.5 - - - - - - - - -
31/09:00pm - W 1 2 1012.2 - - - - - - - - -
31/08:30pm - CALM 0 1 1012.0 - - - - - - - - -
31/08:00pm - NE 1 3 1011.7 - - - - - - - - -
31/07:30pm - NNE 4 8 1011.3 - - - - - - - - -
31/07:00pm - NE 5 10 1011.1 - - - - - - - - -
31/06:30pm - NNE 8 13 1010.8 - - - - - - - - -
31/06:00pm - NE 9 14 1010.6 - - - - - - - - -
31/05:30pm - NNE 8 14 1010.5 - - - - - - - - -
31/05:00pm - NNE 7 12 1010.5 - - - - - - - - -
31/04:30pm - N 7 13 1010.5 - - - - - - - - -
31/04:00pm - NW 6 11 1010.5 - - - - - - - - -
31/03:30pm - NW 7 12 1010.6 - - - - - - - - -
31/03:00pm - WNW 4 9 1011.0 - - - - - - - - -
31/02:30pm - WNW 8 11 1011.5 - - - - - - - - -
31/02:00pm - SE 5 8 1012.3 - - - - - - - - -
31/01:30pm - ESE 7 11 1012.7 - - - - - - - - -
31/01:00pm - SE 5 8 1013.3 - - - - - - - - -
31/12:30pm - SE 6 8 1013.7 - - - - - - - - -
31/12:00pm - ESE 5 7 1014.3 - - - - - - - - -
31/11:30am - E 5 7 1014.8 - - - - - - - - -
31/11:00am - E 5 9 1015.2 - - - - - - - - -
31/10:30am - SE 5 6 1015.5 - - - - - - - - -
31/10:00am - SE 5 7 1015.6 - - - - - - - - -
31/09:30am - ESE 4 6 1015.6 - - - - - - - - -
31/09:00am - E 3 6 1015.3 - - - - - - - - -
31/08:30am - E 5 6 1015.1 - - - - - - - - -
31/08:00am - E 5 7 1015.0 - - - - - - - - -
31/07:30am - ENE 3 5 1014.8 - - - - - - - - -
31/07:00am - NE 3 4 1014.5 - - - - - - - - -
31/06:30am - NE 1 3 1014.4 - - - - - - - - -
31/06:00am - ENE 2 5 1014.2 - - - - - - - - -
31/05:30am - ENE 2 4 1014.1 - - - - - - - - -
31/05:00am - ENE 2 3 1014.0 - - - - - - - - -
31/04:30am - CALM 0 1 1013.9 - - - - - - - - -
31/04:00am - ENE 2 5 1013.9 - - - - - - - - -
31/03:30am - ENE 3 4 1013.9 - - - - - - - - -
31/03:00am - ENE 4 5 1014.0 - - - - - - - - -
31/02:30am - SE 2 4 1014.1 - - - - - - - - -
31/02:00am - SSW 3 4 1014.1 - - - - - - - - -
31/01:30am - SSW 3 4 1014.3 - - - - - - - - -
31/01:00am - SSW 4 5 1014.4 - - - - - - - - -
31/12:30am - SSW 6 7 1014.4 - - - - - - - - -
31/12:00am 25.0 SSW 5 7 1014.2 - - - - - - - - -
 
Date/Time
CST
Temp

°C
Wind Pressure Rain
since 9am
mm
Weather Cloud Vis
km
Sea
Height
m
Swell
Dir
 
Speed
knots
Gust
knots
hPa Trend Height
m
Period
s
Dir
30/11:30pm 25.8 CALM 0 2 1014.2 - - - - - - - - -
30/11:00pm 26.8 SW 1 2 1014.1 - - - - - - - - -
30/10:30pm 26.4 WSW 1 3 1014.2 - - - - - - - - -
30/10:00pm 26.4 S 1 2 1014.1 - - - - - - - - -
30/09:30pm 26.3 CALM 0 1 1013.9 - - - - - - - - -
30/09:00pm 26.4 SSE 1 2 1013.7 - - - - - - - - -
30/08:30pm 26.4 NE 2 4 1013.5 - - - - - - - - -
30/08:00pm 26.6 NNE 2 5 1013.1 - - - - - - - - -
30/07:30pm 26.9 NE 5 12 1012.6 - - - - - - - - -
30/07:00pm 27.3 NE 9 15 1012.1 - - - - - - - - -
30/06:30pm 27.8 NE 8 14 1011.7 - - - - - - - - -
30/06:00pm 28.1 NE 10 19 1011.5 - - - - - - - - -
30/05:30pm 28.8 NNE 8 18 1011.2 - - - - - - - - -
30/05:00pm 29.4 NNE 6 13 1011.2 - - - - - - - - -
30/04:30pm 29.4 NNE 10 16 1010.8 - - - - - - - - -
30/04:00pm 31.5 E 10 14 1010.8 - - - - - - - - -
30/03:30pm 30.5 ESE 8 11 1010.9 - - - - - - - - -
30/03:00pm 30.9 E 8 12 1011.3 - - - - - - - - -
30/02:30pm 30.2 ESE 13 16 1011.8 - - - - - - - - -
30/02:00pm 30.2 E 14 18 1012.4 - - - - - - - - -
30/01:30pm 29.6 E 12 15 1012.8 - - - - - - - - -
30/01:00pm 29.6 E 12 16 1013.3 - - - - - - - - -
30/12:30pm 29.2 E 14 20 1013.7 - - - - - - - - -
30/12:00pm 28.4 E 12 15 1014.3 - - - - - - - - -
30/11:30am 28.1 E 12 16 1014.9 - - - - - - - - -
30/11:00am 27.5 E 12 15 1015.5 - - - - - - - - -
30/10:30am 26.5 ESE 11 14 1015.8 - - - - - - - - -
30/10:00am 25.3 SE 8 12 1016.0 - - - - - - - - -
30/02:00am - ESE 1 2 1014.2 - - - - - - - - -
30/01:30am - ENE 4 6 1014.3 - - - - - - - - -
30/01:00am - ENE 4 7 1014.5 - - - - - - - - -
30/12:30am - ENE 4 7 1014.6 - - - - - - - - -
30/12:00am - E 6 8 1014.5 - - - - - - - - -
 
Date/Time
CST
Temp

°C
Wind Pressure Rain
since 9am
mm
Weather Cloud Vis
km
Sea
Height
m
Swell
Dir
 
Speed
knots
Gust
knots
hPa Trend Height
m
Period
s
Dir
29/11:30pm - E 4 7 1014.5 - - - - - - - - -
29/11:00pm - E 3 5 1014.5 - - - - - - - - -
29/10:30pm - ENE 4 6 1014.3 - - - - - - - - -
29/10:00pm - NE 5 9 1014.2 - - - - - - - - -
29/09:30pm - NE 5 10 1014.0 - - - - - - - - -
29/09:00pm - NE 7 11 1013.9 - - - - - - - - -
29/08:30pm 26.4 NE 6 12 1013.6 - - - - - - - - -
29/08:00pm 26.6 NE 6 10 1013.4 - - - - - - - - -
29/07:30pm 27.0 NE 5 9 1012.8 - - - - - - - - -
29/07:00pm 27.5 NE 6 11 1012.5 - - - - - - - - -
29/06:30pm 28.1 NE 7 12 1012.1 - - - - - - - - -
29/06:00pm 28.6 NE 8 14 1011.9 - - - - - - - - -
29/05:30pm 29.2 NE 7 14 1011.5 - - - - - - - - -
29/05:00pm 30.5 E 11 13 1011.4 - - - - - - - - -
29/04:30pm 30.5 E 14 16 1011.2 - - - - - - - - -
29/04:00pm 30.9 ESE 13 16 1011.3 - - - - - - - - -
29/03:30pm 31.3 E 12 17 1011.3 - - - - - - - - -
29/03:00pm 30.6 E 10 16 1011.6 - - - - - - - - -
29/02:30pm 30.4 ESE 13 16 1012.0 - - - - - - - - -
29/02:00pm 29.8 E 15 19 1012.5 - - - - - - - - -
29/01:30pm 29.7 E 17 22 1012.8 - - - - - - - - -
29/01:00pm 29.4 E 14 17 1013.6 - - - - - - - - -
29/12:30pm 28.9 E 16 22 1014.1 - - - - - - - - -
29/12:00pm 28.6 E 15 20 1014.7 - - - - - - - - -
29/11:30am 28.1 E 18 22 1015.0 - - - - - - - - -
29/11:00am 27.6 E 14 17 1015.5 - - - - - - - - -
29/10:30am 27.2 E 13 17 1015.9 - - - - - - - - -
29/10:00am 25.2 ESE 8 9 1016.1 - - - - - - - - -
29/09:30am - E 7 8 1016.2 - - - - - - - - -
29/09:00am 23.9 E 6 7 1016.1 - - - - - - - - -
29/08:30am 23.5 E 7 9 1016.0 - - - - - - - - -
29/08:00am 23.5 E 6 8 1015.7 - - - - - - - - -
29/07:30am 23.4 ESE 7 9 1015.6 - - - - - - - - -
29/07:00am 23.8 ESE 5 6 1015.3 - - - - - - - - -
29/06:30am 23.8 S 2 4 1014.9 - - - - - - - - -
29/06:00am 24.0 S 1 3 1014.6 - - - - - - - - -
29/05:30am 23.4 CALM 0 1 1014.4 - - - - - - - - -

Other Formats:

Comma delimited format used in spreadsheet applications
http://www.bom.gov.au/fwo/IDD60701/IDD60701.95122.axf

JavaScript Object Notation format (JSON) in row-major order
http://www.bom.gov.au/fwo/IDD60701/IDD60701.95122.json